sensor_id;sensor_type;location;lat;lon;timestamp;pressure;altitude;pressure_sealevel;temperature;humidity
60170;BME280;46042;49.444;6.862;2023-11-22T00:02:17;99205.50;;;6.44;100.00
60170;BME280;46042;49.444;6.862;2023-11-22T00:04:44;99213.03;;;6.29;100.00
60170;BME280;46042;49.444;6.862;2023-11-22T00:07:11;99221.97;;;6.23;100.00
60170;BME280;46042;49.444;6.862;2023-11-22T00:09:38;99213.63;;;6.14;100.00
60170;BME280;46042;49.444;6.862;2023-11-22T00:12:05;99224.16;;;6.12;100.00
60170;BME280;46042;49.444;6.862;2023-11-22T00:14:32;99228.78;;;6.05;100.00
60170;BME280;46042;49.444;6.862;2023-11-22T00:17:01;99241.19;;;5.98;100.00
60170;BME280;46042;49.444;6.862;2023-11-22T00:19:29;99238.19;;;5.86;100.00
60170;BME280;46042;49.444;6.862;2023-11-22T00:21:57;99242.66;;;5.82;100.00
60170;BME280;46042;49.444;6.862;2023-11-22T00:24:23;99247.94;;;5.80;100.00
60170;BME280;46042;49.444;6.862;2023-11-22T00:26:50;99254.53;;;5.67;100.00
60170;BME280;46042;49.444;6.862;2023-11-22T00:29:16;99253.84;;;5.62;100.00
60170;BME280;46042;49.444;6.862;2023-11-22T00:31:43;99255.34;;;5.69;100.00
60170;BME280;46042;49.444;6.862;2023-11-22T00:34:11;99267.53;;;5.68;100.00
60170;BME280;46042;49.444;6.862;2023-11-22T00:36:38;99273.84;;;5.63;100.00
60170;BME280;46042;49.444;6.862;2023-11-22T00:39:04;99270.88;;;5.48;100.00
60170;BME280;46042;49.444;6.862;2023-11-22T00:41:31;99270.06;;;5.46;100.00
60170;BME280;46042;49.444;6.862;2023-11-22T00:43:58;99279.78;;;5.43;100.00
60170;BME280;46042;49.444;6.862;2023-11-22T00:46:25;99284.41;;;5.34;100.00
60170;BME280;46042;49.444;6.862;2023-11-22T00:48:52;99288.69;;;5.37;100.00
60170;BME280;46042;49.444;6.862;2023-11-22T00:51:19;99287.81;;;5.36;100.00
60170;BME280;46042;49.444;6.862;2023-11-22T00:53:46;99293.00;;;5.38;100.00
60170;BME280;46042;49.444;6.862;2023-11-22T00:56:13;99293.09;;;5.35;100.00
60170;BME280;46042;49.444;6.862;2023-11-22T00:58:40;99289.16;;;5.23;100.00
60170;BME280;46042;49.444;6.862;2023-11-22T01:01:07;99282.16;;;5.23;100.00
60170;BME280;46042;49.444;6.862;2023-11-22T01:03:34;99278.09;;;5.15;100.00
60170;BME280;46042;49.444;6.862;2023-11-22T01:06:02;99280.72;;;5.15;100.00
60170;BME280;46042;49.444;6.862;2023-11-22T01:08:29;99285.50;;;5.02;100.00
60170;BME280;46042;49.444;6.862;2023-11-22T01:10:56;99289.81;;;5.03;100.00
60170;BME280;46042;49.444;6.862;2023-11-22T01:13:24;99285.75;;;4.94;100.00
60170;BME280;46042;49.444;6.862;2023-11-22T01:15:51;99295.66;;;4.82;100.00
60170;BME280;46042;49.444;6.862;2023-11-22T01:18:17;99298.13;;;4.87;100.00
60170;BME280;46042;49.444;6.862;2023-11-22T01:20:45;99304.41;;;4.81;100.00
60170;BME280;46042;49.444;6.862;2023-11-22T01:23:12;99321.16;;;4.74;100.00
60170;BME280;46042;49.444;6.862;2023-11-22T01:25:39;99314.94;;;4.78;100.00
60170;BME280;46042;49.444;6.862;2023-11-22T01:28:05;99323.72;;;4.76;100.00
60170;BME280;46042;49.444;6.862;2023-11-22T01:30:33;99319.28;;;4.78;100.00
60170;BME280;46042;49.444;6.862;2023-11-22T01:33:00;99321.16;;;4.74;100.00
60170;BME280;46042;49.444;6.862;2023-11-22T01:35:26;99326.53;;;4.69;100.00
60170;BME280;46042;49.444;6.862;2023-11-22T01:37:54;99331.09;;;4.61;100.00
60170;BME280;46042;49.444;6.862;2023-11-22T01:40:22;99324.41;;;4.52;100.00
60170;BME280;46042;49.444;6.862;2023-11-22T01:42:49;99323.59;;;4.50;100.00
60170;BME280;46042;49.444;6.862;2023-11-22T01:45:16;99326.38;;;4.46;100.00
60170;BME280;46042;49.444;6.862;2023-11-22T01:47:44;99331.88;;;4.35;100.00
60170;BME280;46042;49.444;6.862;2023-11-22T01:50:12;99328.56;;;4.30;100.00
60170;BME280;46042;49.444;6.862;2023-11-22T01:52:39;99327.72;;;4.29;100.00
60170;BME280;46042;49.444;6.862;2023-11-22T01:55:08;99332.25;;;4.22;100.00
60170;BME280;46042;49.444;6.862;2023-11-22T01:57:35;99341.00;;;4.20;100.00
60170;BME280;46042;49.444;6.862;2023-11-22T02:00:04;99346.34;;;4.15;100.00
60170;BME280;46042;49.444;6.862;2023-11-22T02:02:34;99342.00;;;4.16;100.00
60170;BME280;46042;49.444;6.862;2023-11-22T02:05:01;99336.88;;;4.12;100.00
60170;BME280;46042;49.444;6.862;2023-11-22T02:07:28;99343.13;;;4.07;100.00
60170;BME280;46042;49.444;6.862;2023-11-22T02:09:54;99336.53;;;3.93;100.00
60170;BME280;46042;49.444;6.862;2023-11-22T02:12:24;99350.50;;;3.91;100.00
60170;BME280;46042;49.444;6.862;2023-11-22T02:14:50;99343.53;;;3.91;100.00
60170;BME280;46042;49.444;6.862;2023-11-22T02:17:17;99349.59;;;3.92;100.00
60170;BME280;46042;49.444;6.862;2023-11-22T02:19:44;99349.78;;;3.84;100.00
60170;BME280;46042;49.444;6.862;2023-11-22T02:22:10;99352.94;;;3.64;100.00
60170;BME280;46042;49.444;6.862;2023-11-22T02:24:37;99351.84;;;3.73;100.00
60170;BME280;46042;49.444;6.862;2023-11-22T02:27:04;99350.25;;;3.68;100.00
60170;BME280;46042;49.444;6.862;2023-11-22T02:29:30;99346.84;;;3.65;100.00
60170;BME280;46042;49.444;6.862;2023-11-22T02:31:57;99360.84;;;3.61;100.00
60170;BME280;46042;49.444;6.862;2023-11-22T02:34:24;99363.66;;;3.53;100.00
60170;BME280;46042;49.444;6.862;2023-11-22T02:36:51;99371.41;;;3.54;100.00
60170;BME280;46042;49.444;6.862;2023-11-22T02:39:41;99370.56;;;3.54;100.00
60170;BME280;46042;49.444;6.862;2023-11-22T02:42:12;99368.88;;;3.51;100.00
60170;BME280;46042;49.444;6.862;2023-11-22T02:44:39;99376.06;;;3.43;100.00
60170;BME280;46042;49.444;6.862;2023-11-22T02:47:06;99375.44;;;3.32;100.00
60170;BME280;46042;49.444;6.862;2023-11-22T02:49:33;99372.94;;;3.29;100.00
60170;BME280;46042;49.444;6.862;2023-11-22T02:52:00;99375.72;;;3.21;100.00
60170;BME280;46042;49.444;6.862;2023-11-22T02:54:27;99376.59;;;3.20;100.00
60170;BME280;46042;49.444;6.862;2023-11-22T02:56:54;99376.59;;;3.20;100.00
60170;BME280;46042;49.444;6.862;2023-11-22T02:59:20;99373.31;;;3.11;100.00
60170;BME280;46042;49.444;6.862;2023-11-22T03:01:47;99390.72;;;3.09;100.00
60170;BME280;46042;49.444;6.862;2023-11-22T03:04:14;99408.09;;;3.09;100.00
60170;BME280;46042;49.444;6.862;2023-11-22T03:06:41;99419.34;;;3.11;100.00
60170;BME280;46042;49.444;6.862;2023-11-22T03:09:07;99417.75;;;3.04;100.00
60170;BME280;46042;49.444;6.862;2023-11-22T03:11:35;99425.66;;;2.99;100.00
60170;BME280;46042;49.444;6.862;2023-11-22T03:14:01;99434.41;;;2.96;100.00
60170;BME280;46042;49.444;6.862;2023-11-22T03:16:30;99436.22;;;2.93;100.00
60170;BME280;46042;49.444;6.862;2023-11-22T03:18:57;99433.75;;;2.87;100.00
60170;BME280;46042;49.444;6.862;2023-11-22T03:21:24;99432.03;;;2.86;100.00
60170;BME280;46042;49.444;6.862;2023-11-22T03:23:54;99442.41;;;2.87;100.00
60170;BME280;46042;49.444;6.862;2023-11-22T03:26:20;99444.22;;;2.83;100.00
60170;BME280;46042;49.444;6.862;2023-11-22T03:28:47;99443.28;;;2.86;100.00
60170;BME280;46042;49.444;6.862;2023-11-22T03:31:14;99445.22;;;2.76;100.00
60170;BME280;46042;49.444;6.862;2023-11-22T03:33:40;99453.09;;;2.75;100.00
60170;BME280;46042;49.444;6.862;2023-11-22T03:36:07;99451.47;;;2.67;100.00
60170;BME280;46042;49.444;6.862;2023-11-22T03:38:34;99458.47;;;2.65;100.00
60170;BME280;46042;49.444;6.862;2023-11-22T03:41:00;99470.56;;;2.68;100.00
60170;BME280;46042;49.444;6.862;2023-11-22T03:43:27;99473.19;;;2.65;100.00
60170;BME280;46042;49.444;6.862;2023-11-22T03:45:54;99480.09;;;2.67;100.00
60170;BME280;46042;49.444;6.862;2023-11-22T03:48:21;99476.75;;;2.61;100.00
60170;BME280;46042;49.444;6.862;2023-11-22T03:50:50;99479.41;;;2.59;100.00
60170;BME280;46042;49.444;6.862;2023-11-22T03:53:16;99475.19;;;2.53;100.00
60170;BME280;46042;49.444;6.862;2023-11-22T03:55:43;99473.56;;;2.48;100.00
60170;BME280;46042;49.444;6.862;2023-11-22T03:58:10;99477.94;;;2.46;100.00
60170;BME280;46042;49.444;6.862;2023-11-22T04:00:37;99481.47;;;2.41;100.00
60170;BME280;46042;49.444;6.862;2023-11-22T04:03:04;99481.50;;;2.38;100.00
60170;BME280;46042;49.444;6.862;2023-11-22T04:05:31;99484.91;;;2.42;100.00
60170;BME280;46042;49.444;6.862;2023-11-22T04:07:58;99492.81;;;2.37;100.00
60170;BME280;46042;49.444;6.862;2023-11-22T04:10:25;99507.63;;;2.32;100.00
60170;BME280;46042;49.444;6.862;2023-11-22T04:12:52;99512.97;;;2.26;100.00
60170;BME280;46042;49.444;6.862;2023-11-22T04:15:19;99515.69;;;2.18;100.00
60170;BME280;46042;49.444;6.862;2023-11-22T04:17:46;99516.59;;;2.16;100.00
60170;BME280;46042;49.444;6.862;2023-11-22T04:20:14;99524.56;;;2.06;100.00
60170;BME280;46042;49.444;6.862;2023-11-22T04:22:43;99531.41;;;2.10;100.00
60170;BME280;46042;49.444;6.862;2023-11-22T04:25:11;99530.53;;;2.10;100.00
60170;BME280;46042;49.444;6.862;2023-11-22T04:27:41;99535.88;;;2.02;100.00
60170;BME280;46042;49.444;6.862;2023-11-22T04:30:09;99546.28;;;2.02;100.00
60170;BME280;46042;49.444;6.862;2023-11-22T04:32:40;99555.84;;;2.00;100.00
60170;BME280;46042;49.444;6.862;2023-11-22T04:35:11;99554.94;;;2.01;100.00
60170;BME280;46042;49.444;6.862;2023-11-22T04:37:38;99548.91;;;2.01;100.00
60170;BME280;46042;49.444;6.862;2023-11-22T04:40:05;99554.16;;;1.97;100.00
60170;BME280;46042;49.444;6.862;2023-11-22T04:42:35;99551.56;;;1.96;100.00
60170;BME280;46042;49.444;6.862;2023-11-22T04:45:03;99553.34;;;1.92;100.00
60170;BME280;46042;49.444;6.862;2023-11-22T04:47:30;99543.19;;;1.80;100.00
60170;BME280;46042;49.444;6.862;2023-11-22T04:49:57;99537.97;;;1.80;100.00
60170;BME280;46042;49.444;6.862;2023-11-22T04:52:24;99541.41;;;1.80;100.00
60170;BME280;46042;49.444;6.862;2023-11-22T04:54:51;99556.16;;;1.80;100.00
60170;BME280;46042;49.444;6.862;2023-11-22T04:57:17;99565.75;;;1.76;100.00
60170;BME280;46042;49.444;6.862;2023-11-22T04:59:45;99558.84;;;1.74;100.00
60170;BME280;46042;49.444;6.862;2023-11-22T05:02:12;99578.69;;;1.78;100.00
60170;BME280;46042;49.444;6.862;2023-11-22T05:04:38;99578.69;;;1.78;100.00
60170;BME280;46042;49.444;6.862;2023-11-22T05:07:05;99581.50;;;1.65;100.00
60170;BME280;46042;49.444;6.862;2023-11-22T05:09:32;99573.69;;;1.64;100.00
60170;BME280;46042;49.444;6.862;2023-11-22T05:11:58;99587.53;;;1.66;100.00
60170;BME280;46042;49.444;6.862;2023-11-22T05:14:25;99588.41;;;1.66;100.00
60170;BME280;46042;49.444;6.862;2023-11-22T05:16:53;99603.16;;;1.64;100.00
60170;BME280;46042;49.444;6.862;2023-11-22T05:19:20;99597.06;;;1.64;100.00
60170;BME280;46042;49.444;6.862;2023-11-22T05:21:47;99599.69;;;1.62;100.00
60170;BME280;46042;49.444;6.862;2023-11-22T05:24:14;99608.34;;;1.61;100.00
60170;BME280;46042;49.444;6.862;2023-11-22T05:26:43;99605.69;;;1.66;100.00
60170;BME280;46042;49.444;6.862;2023-11-22T05:29:10;99600.56;;;1.63;100.00
60170;BME280;46042;49.444;6.862;2023-11-22T05:31:37;99598.84;;;1.60;100.00
60170;BME280;46042;49.444;6.862;2023-11-22T05:34:04;99595.31;;;1.66;100.00
60170;BME280;46042;49.444;6.862;2023-11-22T05:36:30;99592.66;;;1.69;100.00
60170;BME280;46042;49.444;6.862;2023-11-22T05:38:57;99596.09;;;1.71;100.00
60170;BME280;46042;49.444;6.862;2023-11-22T05:41:25;99597.78;;;1.75;100.00
60170;BME280;46042;49.444;6.862;2023-11-22T05:43:52;99597.84;;;1.72;100.00
60170;BME280;46042;49.444;6.862;2023-11-22T05:46:20;99595.25;;;1.69;100.00
60170;BME280;46042;49.444;6.862;2023-11-22T05:48:51;99597.84;;;1.72;100.00
60170;BME280;46042;49.444;6.862;2023-11-22T05:51:18;99594.38;;;1.73;100.00
60170;BME280;46042;49.444;6.862;2023-11-22T05:53:45;99603.00;;;1.75;100.00
60170;BME280;46042;49.444;6.862;2023-11-22T05:56:12;99603.78;;;1.80;100.00
60170;BME280;46042;49.444;6.862;2023-11-22T05:58:39;99608.13;;;1.78;100.00
60170;BME280;46042;49.444;6.862;2023-11-22T06:01:06;99603.78;;;1.80;100.00
60170;BME280;46042;49.444;6.862;2023-11-22T06:03:33;99614.94;;;1.85;100.00
60170;BME280;46042;49.444;6.862;2023-11-22T06:06:01;99618.41;;;1.86;100.00
60170;BME280;46042;49.444;6.862;2023-11-22T06:08:29;99609.81;;;1.82;100.00
60170;BME280;46042;49.444;6.862;2023-11-22T06:10:57;99615.84;;;1.84;100.00
60170;BME280;46042;49.444;6.862;2023-11-22T06:13:26;99617.59;;;1.82;100.00
60170;BME280;46042;49.444;6.862;2023-11-22T06:15:53;99625.31;;;1.89;100.00
60170;BME280;46042;49.444;6.862;2023-11-22T06:18:19;99621.84;;;1.88;100.00
60170;BME280;46042;49.444;6.862;2023-11-22T06:20:46;99625.22;;;1.93;100.00
60170;BME280;46042;49.444;6.862;2023-11-22T06:23:16;99626.06;;;1.95;100.00
60170;BME280;46042;49.444;6.862;2023-11-22T06:25:42;99629.53;;;1.94;100.00
60170;BME280;46042;49.444;6.862;2023-11-22T06:28:10;99632.13;;;1.96;100.00
60170;BME280;46042;49.444;6.862;2023-11-22T06:30:37;99653.75;;;1.98;100.00
60170;BME280;46042;49.444;6.862;2023-11-22T06:33:03;99649.28;;;2.09;100.00
60170;BME280;46042;49.444;6.862;2023-11-22T06:35:30;99648.31;;;2.15;100.00
60170;BME280;46042;49.444;6.862;2023-11-22T06:37:57;99656.91;;;2.19;100.00
60170;BME280;46042;49.444;6.862;2023-11-22T06:40:24;99657.84;;;2.13;100.00
60170;BME280;46042;49.444;6.862;2023-11-22T06:42:51;99665.59;;;2.18;100.00
60170;BME280;46042;49.444;6.862;2023-11-22T06:45:18;99655.19;;;2.18;100.00
60170;BME280;46042;49.444;6.862;2023-11-22T06:47:45;99656.03;;;2.21;100.00
60170;BME280;46042;49.444;6.862;2023-11-22T06:50:12;99661.34;;;2.13;100.00
60170;BME280;46042;49.444;6.862;2023-11-22T06:52:39;99661.28;;;2.17;100.00
60170;BME280;46042;49.444;6.862;2023-11-22T06:55:08;99667.34;;;2.17;100.00
60170;BME280;46042;49.444;6.862;2023-11-22T06:57:35;99660.38;;;2.19;100.00
60170;BME280;46042;49.444;6.862;2023-11-22T07:00:03;99657.72;;;2.24;100.00
60170;BME280;46042;49.444;6.862;2023-11-22T07:02:39;99661.22;;;2.20;100.00
60170;BME280;46042;49.444;6.862;2023-11-22T07:05:06;99667.41;;;2.12;100.00
60170;BME280;46042;49.444;6.862;2023-11-22T07:07:37;99666.41;;;2.23;100.00
60170;BME280;46042;49.444;6.862;2023-11-22T07:10:04;99673.34;;;2.21;100.00
60170;BME280;46042;49.444;6.862;2023-11-22T07:12:34;99674.22;;;2.20;100.00
60170;BME280;46042;49.444;6.862;2023-11-22T07:15:02;99675.00;;;2.28;100.00
60170;BME280;46042;49.444;6.862;2023-11-22T07:17:29;99680.19;;;2.26;100.00
60170;BME280;46042;49.444;6.862;2023-11-22T07:19:56;99681.84;;;2.31;100.00
60170;BME280;46042;49.444;6.862;2023-11-22T07:22:23;99689.66;;;2.32;100.00
60170;BME280;46042;49.444;6.862;2023-11-22T07:24:50;99679.25;;;2.31;100.00
60170;BME280;46042;49.444;6.862;2023-11-22T07:27:21;99679.38;;;2.24;100.00
60170;BME280;46042;49.444;6.862;2023-11-22T07:29:48;99690.66;;;2.23;100.00
60170;BME280;46042;49.444;6.862;2023-11-22T07:32:18;99695.03;;;2.20;100.00
60170;BME280;46042;49.444;6.862;2023-11-22T07:34:47;99693.34;;;2.16;100.00
60170;BME280;46042;49.444;6.862;2023-11-22T07:37:14;99696.91;;;2.10;100.00
60170;BME280;46042;49.444;6.862;2023-11-22T07:39:41;99693.47;;;2.09;100.00
60170;BME280;46042;49.444;6.862;2023-11-22T07:42:10;99686.56;;;2.05;100.00
60170;BME280;46042;49.444;6.862;2023-11-22T07:44:37;99689.97;;;2.10;100.00
60170;BME280;46042;49.444;6.862;2023-11-22T07:47:06;99687.38;;;2.10;100.00
60170;BME280;46042;49.444;6.862;2023-11-22T07:49:38;99693.47;;;2.08;100.00
60170;BME280;46042;49.444;6.862;2023-11-22T07:52:05;99685.09;;;1.89;100.00
60170;BME280;46042;49.444;6.862;2023-11-22T07:54:33;99684.22;;;1.88;100.00
60170;BME280;46042;49.444;6.862;2023-11-22T07:57:02;99693.66;;;1.94;100.00
60170;BME280;46042;49.444;6.862;2023-11-22T07:59:29;99694.56;;;1.93;100.00
60170;BME280;46042;49.444;6.862;2023-11-22T08:01:55;99691.94;;;1.93;100.00
60170;BME280;46042;49.444;6.862;2023-11-22T08:04:23;99692.75;;;1.96;100.00
60170;BME280;46042;49.444;6.862;2023-11-22T08:06:51;99690.16;;;1.96;100.00
60170;BME280;46042;49.444;6.862;2023-11-22T08:09:19;99697.97;;;1.95;100.00
60170;BME280;46042;49.444;6.862;2023-11-22T08:11:46;99692.78;;;1.93;100.00
60170;BME280;46042;49.444;6.862;2023-11-22T08:14:13;99703.19;;;1.95;100.00
60170;BME280;46042;49.444;6.862;2023-11-22T08:16:40;99705.78;;;1.93;100.00
60170;BME280;46042;49.444;6.862;2023-11-22T08:19:09;99708.38;;;1.93;100.00
60170;BME280;46042;49.444;6.862;2023-11-22T08:21:36;99700.59;;;1.95;100.00
60170;BME280;46042;49.444;6.862;2023-11-22T08:24:02;99712.78;;;1.90;100.00
60170;BME280;46042;49.444;6.862;2023-11-22T08:26:29;99721.47;;;1.85;100.00
60170;BME280;46042;49.444;6.862;2023-11-22T08:28:56;99734.41;;;1.92;100.00
60170;BME280;46042;49.444;6.862;2023-11-22T08:31:23;99729.22;;;1.90;100.00
60170;BME280;46042;49.444;6.862;2023-11-22T08:33:50;99750.06;;;1.87;100.00
60170;BME280;46042;49.444;6.862;2023-11-22T08:36:17;99756.13;;;1.84;100.00
60170;BME280;46042;49.444;6.862;2023-11-22T08:38:45;99764.84;;;1.82;100.00
60170;BME280;46042;49.444;6.862;2023-11-22T08:41:11;99770.84;;;1.85;100.00
60170;BME280;46042;49.444;6.862;2023-11-22T08:43:41;99763.94;;;1.84;100.00
60170;BME280;46042;49.444;6.862;2023-11-22T08:46:07;99770.84;;;1.87;100.00
60170;BME280;46042;49.444;6.862;2023-11-22T08:48:41;99766.53;;;1.84;100.00
60170;BME280;46042;49.444;6.862;2023-11-22T08:51:09;99762.25;;;1.82;100.00
60170;BME280;46042;49.444;6.862;2023-11-22T08:53:37;99764.84;;;1.79;100.00
60170;BME280;46042;49.444;6.862;2023-11-22T08:56:04;99762.31;;;1.77;100.00
60170;BME280;46042;49.444;6.862;2023-11-22T08:58:32;99762.25;;;1.79;100.00
60170;BME280;46042;49.444;6.862;2023-11-22T09:01:00;99762.25;;;1.79;95.90
60170;BME280;46042;49.444;6.862;2023-11-22T09:03:27;99757.06;;;1.79;95.14
60170;BME280;46042;49.444;6.862;2023-11-22T09:05:55;99743.28;;;1.74;87.63
60170;BME280;46042;49.444;6.862;2023-11-22T09:08:22;99742.44;;;1.70;96.35
60170;BME280;46042;49.444;6.862;2023-11-22T09:10:54;99728.66;;;1.65;92.15
60170;BME280;46042;49.444;6.862;2023-11-22T09:13:21;99726.06;;;1.66;87.36
60170;BME280;46042;49.444;6.862;2023-11-22T09:15:49;99725.13;;;1.70;89.62
60170;BME280;46042;49.444;6.862;2023-11-22T09:18:16;99722.50;;;1.75;92.56
60170;BME280;46042;49.444;6.862;2023-11-22T09:20:43;99718.13;;;1.77;90.27
60170;BME280;46042;49.444;6.862;2023-11-22T09:23:11;99719.00;;;1.76;90.22
60170;BME280;46042;49.444;6.862;2023-11-22T09:25:40;99721.63;;;1.76;83.99
60170;BME280;46042;49.444;6.862;2023-11-22T09:28:07;99720.72;;;1.77;86.83
60170;BME280;46042;49.444;6.862;2023-11-22T09:30:36;99729.34;;;1.81;85.44
60170;BME280;46042;49.444;6.862;2023-11-22T09:35:33;99730.16;;;1.84;81.79
60170;BME280;46042;49.444;6.862;2023-11-22T09:38:06;99736.19;;;1.87;84.84
60170;BME280;46042;49.444;6.862;2023-11-22T09:40:40;99746.63;;;1.85;83.85
60170;BME280;46042;49.444;6.862;2023-11-22T09:43:07;99750.00;;;1.90;85.69
60170;BME280;46042;49.444;6.862;2023-11-22T09:45:34;99758.69;;;1.91;86.75
60170;BME280;46042;49.444;6.862;2023-11-22T09:48:02;99771.63;;;1.94;82.61
60170;BME280;46042;49.444;6.862;2023-11-22T09:53:36;99780.66;;;2.31;79.08
60170;BME280;46042;49.444;6.862;2023-11-22T09:56:07;99772.25;;;2.76;86.04
60170;BME280;46042;49.444;6.862;2023-11-22T09:58:40;99782.88;;;3.15;77.88
60170;BME280;46042;49.444;6.862;2023-11-22T10:01:11;99777.31;;;3.82;78.83
60170;BME280;46042;49.444;6.862;2023-11-22T10:03:40;99774.09;;;4.91;71.86
60170;BME280;46042;49.444;6.862;2023-11-22T10:06:08;99778.06;;;4.68;67.39
60170;BME280;46042;49.444;6.862;2023-11-22T10:08:36;99778.72;;;5.49;68.24
60170;BME280;46042;49.444;6.862;2023-11-22T10:11:05;99776.03;;;5.83;70.14
60170;BME280;46042;49.444;6.862;2023-11-22T10:13:32;99770.16;;;5.75;67.67
60170;BME280;46042;49.444;6.862;2023-11-22T10:16:12;99759.16;;;5.94;64.97
60170;BME280;46042;49.444;6.862;2023-11-22T10:18:46;99758.25;;;6.83;68.00
60170;BME280;46042;49.444;6.862;2023-11-22T10:21:24;99758.50;;;7.03;66.13
60170;BME280;46042;49.444;6.862;2023-11-22T10:24:00;99764.25;;;7.89;62.81
60170;BME280;46042;49.444;6.862;2023-11-22T10:26:29;99758.97;;;8.82;63.06
60170;BME280;46042;49.444;6.862;2023-11-22T10:28:57;99766.84;;;8.82;58.13
60170;BME280;46042;49.444;6.862;2023-11-22T10:31:24;99766.34;;;9.16;51.64
60170;BME280;46042;49.444;6.862;2023-11-22T10:33:52;99756.69;;;9.37;52.78
60170;BME280;46042;49.444;6.862;2023-11-22T10:36:21;99754.47;;;9.48;50.55
60170;BME280;46042;49.444;6.862;2023-11-22T10:38:49;99747.81;;;9.39;48.35
60170;BME280;46042;49.444;6.862;2023-11-22T10:41:20;99740.53;;;9.25;47.68
60170;BME280;46042;49.444;6.862;2023-11-22T10:43:47;99741.72;;;9.79;49.45
60170;BME280;46042;49.444;6.862;2023-11-22T10:46:15;99742.81;;;9.13;50.80
60170;BME280;46042;49.444;6.862;2023-11-22T10:48:43;99744.06;;;9.04;52.65
60170;BME280;46042;49.444;6.862;2023-11-22T10:51:13;99757.56;;;8.74;52.71
60170;BME280;46042;49.444;6.862;2023-11-22T10:53:51;99759.19;;;8.54;54.85
60170;BME280;46042;49.444;6.862;2023-11-22T10:56:20;99755.06;;;8.24;57.52
60170;BME280;46042;49.444;6.862;2023-11-22T10:58:57;99763.81;;;7.52;52.83
60170;BME280;46042;49.444;6.862;2023-11-22T11:01:25;99759.22;;;7.06;55.85
60170;BME280;46042;49.444;6.862;2023-11-22T11:04:01;99761.66;;;6.86;61.52
60170;BME280;46042;49.444;6.862;2023-11-22T11:06:34;99761.13;;;6.47;63.92
60170;BME280;46042;49.444;6.862;2023-11-22T11:09:04;99756.81;;;6.16;62.93
60170;BME280;46042;49.444;6.862;2023-11-22T11:11:38;99764.25;;;6.00;67.43
60170;BME280;46042;49.444;6.862;2023-11-22T11:14:08;99756.91;;;5.81;69.34
60170;BME280;46042;49.444;6.862;2023-11-22T11:16:39;99760.22;;;5.57;67.84
60170;BME280;46042;49.444;6.862;2023-11-22T11:19:08;99767.31;;;5.51;66.42
60170;BME280;46042;49.444;6.862;2023-11-22T11:21:36;99766.31;;;5.57;68.93
60170;BME280;46042;49.444;6.862;2023-11-22T11:24:03;99776.59;;;5.62;69.88
60170;BME280;46042;49.444;6.862;2023-11-22T11:26:33;99786.75;;;5.41;65.95
60170;BME280;46042;49.444;6.862;2023-11-22T11:29:03;99786.25;;;5.60;68.62
60170;BME280;46042;49.444;6.862;2023-11-22T11:31:38;99783.97;;;6.12;69.87
60170;BME280;46042;49.444;6.862;2023-11-22T11:34:07;99776.84;;;6.74;65.34
60170;BME280;46042;49.444;6.862;2023-11-22T11:36:37;99772.53;;;7.00;62.22
60170;BME280;46042;49.444;6.862;2023-11-22T11:39:08;99770.53;;;7.34;60.15
60170;BME280;46042;49.444;6.862;2023-11-22T11:41:42;99773.06;;;8.58;56.79
60170;BME280;46042;49.444;6.862;2023-11-22T11:44:10;99778.50;;;8.75;56.80
60170;BME280;46042;49.444;6.862;2023-11-22T11:46:38;99772.69;;;8.89;56.69
60170;BME280;46042;49.444;6.862;2023-11-22T11:49:07;99771.66;;;9.56;50.73
60170;BME280;46042;49.444;6.862;2023-11-22T11:51:34;99772.50;;;9.77;53.65
60170;BME280;46042;49.444;6.862;2023-11-22T11:54:03;99782.56;;;9.88;52.75
60170;BME280;46042;49.444;6.862;2023-11-22T11:56:31;99784.00;;;9.55;51.20
60170;BME280;46042;49.444;6.862;2023-11-22T11:59:01;99782.56;;;9.88;54.38
60170;BME280;46042;49.444;6.862;2023-11-22T12:01:29;99775.09;;;9.98;52.03
60170;BME280;46042;49.444;6.862;2023-11-22T12:04:02;99773.91;;;9.65;53.98
60170;BME280;46042;49.444;6.862;2023-11-22T12:06:29;99780.88;;;10.25;58.79
60170;BME280;46042;49.444;6.862;2023-11-22T12:09:00;99783.03;;;10.17;48.17
60170;BME280;46042;49.444;6.862;2023-11-22T12:11:27;99778.31;;;10.04;49.62
60170;BME280;46042;49.444;6.862;2023-11-22T12:13:55;99780.75;;;9.69;47.31
60170;BME280;46042;49.444;6.862;2023-11-22T12:16:23;99777.09;;;9.32;48.97
60170;BME280;46042;49.444;6.862;2023-11-22T12:18:50;99775.06;;;8.95;50.52
60170;BME280;46042;49.444;6.862;2023-11-22T12:21:18;99769.97;;;9.13;50.89
60170;BME280;46042;49.444;6.862;2023-11-22T12:23:46;99759.44;;;8.70;47.62
60170;BME280;46042;49.444;6.862;2023-11-22T12:26:17;99760.56;;;9.28;57.22
60170;BME280;46042;49.444;6.862;2023-11-22T12:28:48;99758.47;;;9.57;52.24
60170;BME280;46042;49.444;6.862;2023-11-22T12:31:29;99758.72;;;8.66;50.82
60170;BME280;46042;49.444;6.862;2023-11-22T12:34:02;99758.28;;;8.77;53.87
60170;BME280;46042;49.444;6.862;2023-11-22T12:36:29;99756.66;;;8.75;51.97
60170;BME280;46042;49.444;6.862;2023-11-22T12:38:56;99758.31;;;9.60;55.80
60170;BME280;46042;49.444;6.862;2023-11-22T12:41:26;99749.91;;;9.92;55.40
60170;BME280;46042;49.444;6.862;2023-11-22T12:44:06;99744.72;;;10.09;52.63
60170;BME280;46042;49.444;6.862;2023-11-22T12:46:53;99731.66;;;10.08;49.32
60170;BME280;46042;49.444;6.862;2023-11-22T12:49:44;99737.56;;;9.73;43.84
60170;BME280;46042;49.444;6.862;2023-11-22T12:52:16;99740.38;;;10.08;51.34
60170;BME280;46042;49.444;6.862;2023-11-22T12:54:43;99757.47;;;10.38;49.61
60170;BME280;46042;49.444;6.862;2023-11-22T12:57:14;99759.09;;;10.79;54.88
60170;BME280;46042;49.444;6.862;2023-11-22T12:59:44;99766.59;;;10.50;51.24
60170;BME280;46042;49.444;6.862;2023-11-22T13:02:11;99770.94;;;10.70;52.74
60170;BME280;46042;49.444;6.862;2023-11-22T13:04:38;99783.59;;;10.23;48.78
60170;BME280;46042;49.444;6.862;2023-11-22T13:07:05;99788.97;;;10.01;54.31
60170;BME280;46042;49.444;6.862;2023-11-22T13:09:31;99793.00;;;10.29;54.10
60170;BME280;46042;49.444;6.862;2023-11-22T13:12:00;99782.50;;;10.08;51.86
60170;BME280;46042;49.444;6.862;2023-11-22T13:14:27;99777.66;;;10.18;51.90